• Join FlightAware (Why Join?)
  • Login
  • US Flag 
05:29AM EST


 

Airport Tracker/Info


-or-


 

Live Flight TrackerFlight Track Log ✈ UAL1717 ✈ 15-May-2012 ✈ KIAH - KSAN

Flight Track Log - Related Links

Times and Time Zones

All times are in EDT time to prevent confusion due to time zone crossing. See the UAL1717 flight status page for this flight to view local times or setup timezone preferences in your user account.

Time Position Orientation Groundspeed Altitude Reporting Facility
EDT Latitude Longitude Course Direction KTS MPH feet Rate Location/Type
10:46PM 29.9951 -95.4113 126° Southeast  Level FlightAware Approximate
10:46PM 29.9500 -95.3406 278° West 183 211 900  Level Houston Center
10:51PM 29.9883 -95.6800 285° West 293 337 12,000 2,580 Climbing Houston Center
10:52PM 30.0142 -95.7936 282° West 329 379 14,500 1,980 Climbing Houston Center
10:53PM 30.0356 -95.9097 284° West 359 413 16,000 780 Climbing Houston Center
10:54PM 30.0611 -96.0258 282° West 374 430 16,100 900 Climbing Houston Center
10:55PM 30.0806 -96.1300 281° West 374 430 17,900 1,980 Climbing Houston Center
10:56PM 30.1014 -96.2581 281° West 380 437 20,100 2,220 Climbing Houston Center
10:57PM 30.1222 -96.3836 278° West 394 453 22,400 2,340 Climbing Houston Center
10:58PM 30.1400 -96.5261 282° West 405 466 24,800 2,040 Climbing Houston Center
10:59PM 30.1644 -96.6594 284° West 417 480 26,500 1,500 Climbing Houston Center
11:00PM 30.1928 -96.7906 283° West 417 480 27,900 1,380 Climbing Houston Center
11:01PM 30.2208 -96.9289 283° West 434 499 29,400 1,680 Climbing Houston Center
11:02PM 30.2489 -97.0647 285° West 444 511 31,300 1,800 Climbing Houston Center
11:03PM 30.2792 -97.1986 284° West 438 504 33,100 1,320 Climbing Houston Center
11:04PM 30.3069 -97.3322 282° West 433 498 34,000 900 Climbing Houston Center
11:05PM 30.3289 -97.4514 284° West 433 498 34,900 900 Climbing Houston Center
11:06PM 30.3567 -97.5853 283° West 433 498 35,900 540 Climbing Houston Center
11:07PM 30.3839 -97.7192 282° West 433 498 36,000  Climbing Houston Center
11:08PM 30.4092 -97.8531 284° West 433 498 36,000  Level Houston Center
11:09PM 30.4400 -97.9969 283° West 433 498 36,000  Level Houston Center
11:10PM 30.4672 -98.1308 283° West 428 493 36,000  Level Houston Center
11:11PM 30.4942 -98.2628 283° West 428 493 36,000  Level Houston Center
11:12PM 30.5208 -98.3944 281° West 422 486 36,000  Level Houston Center
11:13PM 30.5436 -98.5261 284° West 422 486 36,000  Level Houston Center
11:14PM 30.5722 -98.6581 282° West 422 486 36,000  Level Houston Center
11:15PM 30.5967 -98.7900 282° West 417 480 36,000  Level Houston Center
11:16PM 30.6208 -98.9194 282° West 417 480 36,000  Level Houston Center
11:17PM 30.6436 -99.0392 284° West 417 480 36,000 -60 Level Houston Center
11:18PM 30.6733 -99.1789 283° West 417 480 35,900 -60 Descending Houston Center
11:19PM 30.6994 -99.3086 282° West 417 480 35,900  Level Houston Center
11:20PM 30.7236 -99.4358 282° West 417 480 36,000  Climbing Houston Center
11:21PM 30.7472 -99.5656 283° West 417 480 35,900  Descending Houston Center
11:22PM 30.7728 -99.6981 283° West 417 480 36,000  Climbing Houston Center
11:23PM 30.7983 -99.8281 282° West 417 480 35,900 -60 Descending Houston Center
11:24PM 30.8214 -99.9603 283° West 417 480 35,900  Level Houston Center
11:25PM 30.8467 -100.0928 281° West 417 480 35,900  Level Houston Center
11:26PM 30.8694 -100.2250 283° West 417 480 36,000  Climbing Houston Center
11:27PM 30.8944 -100.3553 280° West 417 480 36,000  Level Houston Center
11:28PM 30.9150 -100.4897 283° West 417 480 36,000 -60 Level Houston Center
11:29PM 30.9400 -100.6153 282° West 417 480 35,900 -60 Descending Houston Center
11:30PM 30.9644 -100.7481 281° West 417 480 35,900  Level Houston Center
11:31PM 30.9867 -100.8806 280° West 422 486 36,000  Climbing Houston Center
11:32PM 31.0064 -101.0156 283° West 422 486 36,000 -60 Level Houston Center
11:33PM 31.0328 -101.1461 282° West 417 480 35,900  Descending Houston Center
11:34PM 31.0567 -101.2767 278° West 417 480 36,000  Climbing Houston Center
11:35PM 31.0711 -101.3942 282° West 408 470 35,900  Descending Houston Center
11:36PM 31.0950 -101.5247 281° West 408 470 36,000  Climbing Houston Center
11:37PM 31.1167 -101.6550 282° West 414 476 35,900  Descending Houston Center
11:38PM 31.1500 -101.8411 281° West 418 481 36,000  Climbing Albuquerque Center
11:39PM 31.1706 -101.9708 281° West 418 481 36,000  Level Albuquerque Center
11:40PM 31.1931 -102.1028 282° West 418 481 36,000 -60 Level Albuquerque Center
11:41PM 31.2181 -102.2444 280° West 418 481 35,900 -60 Descending Albuquerque Center
11:42PM 31.2381 -102.3767 280° West 427 491 35,900  Level Albuquerque Center
11:43PM 31.2581 -102.5064 281° West 421 484 36,000  Climbing Albuquerque Center
11:44PM 31.2772 -102.6242 281° West 421 484 36,000 -60 Level Albuquerque Center
11:45PM 31.2992 -102.7567 281° West 421 484 35,900  Descending Albuquerque Center
11:46PM 31.3208 -102.8889 280° West 421 484 36,000  Climbing Albuquerque Center
11:47PM 31.3403 -103.0192 280° West 421 484 36,000 -60 Level Albuquerque Center
11:48PM 31.3594 -103.1517 281° West 421 484 35,900 -60 Descending Albuquerque Center
11:49PM 31.3806 -103.2794 280° West 421 484 35,900  Level Albuquerque Center
11:50PM 31.4017 -103.4147 281° West 416 479 36,000  Climbing Albuquerque Center
11:51PM 31.4225 -103.5450 282° West 416 479 36,000  Level Albuquerque Center
11:52PM 31.4456 -103.6753 281° West 416 479 36,000 -60 Level Albuquerque Center
11:53PM 31.4683 -103.8153 280° West 410 472 35,900 -60 Descending Albuquerque Center
11:54PM 31.4869 -103.9458 280° West 410 472 35,900  Level Albuquerque Center
11:55PM 31.5069 -104.0742 281° West 410 472 35,900  Level Albuquerque Center
11:56PM 31.5272 -104.2022 279° West 410 472 36,000  Climbing Albuquerque Center
11:57PM 31.5453 -104.3331 280° West 410 472 36,000  Level Albuquerque Center
11:58PM 31.5650 -104.4639 279° West 410 472 36,000 -60 Level Albuquerque Center
11:59PM 31.5828 -104.5972 280° West 410 472 35,900  Descending Albuquerque Center
12:00AM 31.6025 -104.7306 280° West 410 472 36,000  Climbing Albuquerque Center
12:01AM 31.6219 -104.8617 280° West 410 472 36,000  Level Albuquerque Center
12:02AM 31.6414 -104.9925 279° West 410 472 36,000 -60 Level Albuquerque Center
12:03AM 31.6583 -105.1236 280° West 410 472 35,900  Descending Albuquerque Center
12:04AM 31.6772 -105.2450 279° West 410 472 36,000  Climbing Albuquerque Center
12:05AM 31.6942 -105.3764 280° West 410 472 35,900  Descending Albuquerque Center
12:06AM 31.7128 -105.5053 279° West 410 472 36,000  Climbing Albuquerque Center
12:07AM 31.7314 -105.6367 278° West 410 472 36,000  Level Albuquerque Center
12:08AM 31.7478 -105.7703 279° West 410 472 36,000  Level Albuquerque Center
12:09AM 31.7661 -105.9019 279° West 410 472 36,000 -60 Level Albuquerque Center
12:10AM 31.7844 -106.0333 279° West 410 472 35,900  Descending Albuquerque Center
12:11AM 31.8025 -106.1647 278° West 410 472 36,000  Climbing Albuquerque Center
12:12AM 31.8183 -106.2964 276° West 410 472 36,000 -60 Level Albuquerque Center
12:13AM 31.8297 -106.4306 274° West 410 472 35,900  Descending Albuquerque Center
12:14AM 31.8372 -106.5722 275° West 410 472 36,000  Climbing Albuquerque Center
12:15AM 31.8464 -106.7089 275° West 410 472 36,000  Level Albuquerque Center
12:16AM 31.8572 -106.8456 274° West 410 472 36,000  Level Albuquerque Center
12:17AM 31.8661 -106.9800 276° West 410 472 36,000 -60 Level Albuquerque Center
12:18AM 31.8769 -107.1119 273° West 410 472 35,900 -60 Descending Albuquerque Center
12:19AM 31.8833 -107.2461 276° West 415 478 35,900  Level Albuquerque Center
12:20AM 31.8961 -107.3806 272° West 415 478 36,000  Climbing Albuquerque Center
12:21AM 31.9000 -107.4881 275° West 420 483 36,000  Level Albuquerque Center
12:22AM 31.9122 -107.6519 276° West 420 483 36,000  Level Albuquerque Center
12:23AM 31.9244 -107.7914 285° West 425 489 36,000  Level Albuquerque Center
12:24AM 31.9531 -107.9211 286° West 425 489 36,000 -60 Level Albuquerque Center
12:25AM 31.9858 -108.0533 286° West 425 489 35,900  Descending Albuquerque Center
12:26AM 32.0142 -108.1736 286° West 420 483 36,000  Climbing Albuquerque Center
12:27AM 32.0467 -108.3086 286° West 420 483 36,000  Level Albuquerque Center
12:28AM 32.0789 -108.4411 285° West 420 483 36,000  Level Albuquerque Center
12:29AM 32.1089 -108.5736 285° West 420 483 36,000  Level Albuquerque Center
12:30AM 32.1428 -108.7214 285° West 420 483 36,000  Level Albuquerque Center
12:31AM 32.1725 -108.8517 286° West 420 483 36,000  Level Albuquerque Center
12:32AM 32.2042 -108.9847 285° West 420 483 36,000  Level Albuquerque Center
12:33AM 32.2356 -109.1203 285° West 420 483 36,000  Level Albuquerque Center
12:34AM 32.2647 -109.2508 287° West 420 483 36,000  Level Albuquerque Center
12:35AM 32.2981 -109.3817 285° West 420 483 36,000  Level Albuquerque Center
12:36AM 32.3292 -109.5150 286° West 420 483 36,000  Level Albuquerque Center
12:37AM 32.3600 -109.6461 287° West 420 483 36,000  Level Albuquerque Center
12:38AM 32.3931 -109.7747 285° West 420 483 36,000  Level Albuquerque Center
12:39AM 32.4236 -109.9058 286° West 420 483 36,000  Level Albuquerque Center
12:40AM 32.4561 -110.0397 286° West 420 483 36,000  Level Albuquerque Center
12:41AM 32.4867 -110.1686 285° West 420 483 36,000  Level Albuquerque Center
12:42AM 32.5169 -110.3000 288° West 420 483 36,000  Level Albuquerque Center
12:43AM 32.5456 -110.4069 286° West 420 483 36,000  Level Albuquerque Center
12:44AM 32.5794 -110.5483 284° West 420 483 36,000  Level Albuquerque Center
12:45AM 32.6069 -110.6800 286° West 415 478 36,000  Level Albuquerque Center
12:46AM 32.6389 -110.8094 285° West 421 484 36,000  Level Albuquerque Center
12:47AM 32.6683 -110.9414 284° West 421 484 36,000  Level Albuquerque Center
12:48AM 32.6975 -111.0758 286° West 421 484 36,000  Level Albuquerque Center
12:49AM 32.7328 -111.2203 285° West 421 484 36,000  Level Albuquerque Center
12:50AM 32.7636 -111.3550 285° West 421 484 36,000  Level Albuquerque Center
12:51AM 32.7925 -111.4872 285° West 421 484 36,000  Level Albuquerque Center
12:52AM 32.8214 -111.6172 285° West 421 484 36,000  Level Albuquerque Center
12:53AM 32.8500 -111.7469 286° West 421 484 36,000  Level Albuquerque Center
12:54AM 32.8792 -111.8672 279° West 421 484 36,000  Level Albuquerque Center
12:55AM 32.8969 -112.0017 275° West 421 484 36,000  Level Albuquerque Center
12:56AM 32.9081 -112.1406 276° West 416 479 36,000 -60 Level Albuquerque Center
12:57AM 32.9208 -112.2897 276° West 416 479 35,900  Descending Albuquerque Center
12:58AM 32.9339 -112.4289 276° West 416 479 36,000  Climbing Albuquerque Center
12:59AM 32.9467 -112.5658 274° West 421 484 36,000 -60 Level Albuquerque Center
01:00AM 32.9553 -112.7000 261° West 421 484 35,900 -60 Descending Albuquerque Center
01:01AM 32.9367 -112.8347 260° West 415 478 35,900  Level Albuquerque Center
01:02AM 32.9186 -112.9547 262° West 415 478 35,900  Level Albuquerque Center
01:03AM 32.9019 -113.0872 260° West 415 478 35,900  Level Albuquerque Center
01:04AM 32.8831 -113.2169 261° West 415 478 36,000  Climbing Albuquerque Center
01:05AM 32.8661 -113.3492 260° West 409 471 36,000  Level Albuquerque Center
01:07AM 32.8244 -113.6200 262° West 415 478 36,000  Level Los Angeles Center
01:08AM 32.8083 -113.7514 261° West 409 471 36,000 -60 Level Los Angeles Center
01:09AM 32.7900 -113.8853 262° West 409 471 35,900 -60 Descending Los Angeles Center
01:10AM 32.7736 -114.0192 269° West 409 471 35,900  Level Los Angeles Center
01:11AM 32.7717 -114.1500 270° West 409 471 35,900  Level Los Angeles Center
01:12AM 32.7717 -114.2833 269° West 404 465 36,000  Climbing Los Angeles Center
01:13AM 32.7692 -114.4169 269° West 404 465 36,000  Level Los Angeles Center
01:14AM 32.7669 -114.5478 270° West 404 465 36,000  Level Los Angeles Center
01:15AM 32.7664 -114.6836 268° West 404 465 36,000 -120 Level Los Angeles Center
01:16AM 32.7617 -114.8172 269° West 404 465 35,800 -1,440 Descending Los Angeles Center
01:17AM 32.7589 -114.9481 270° West 404 465 33,200 -2,460 Descending Los Angeles Center
01:18AM 32.7581 -115.0839 268° West 404 465 30,900 -2,280 Descending Los Angeles Center
01:19AM 32.7547 -115.2122 268° West 404 465 28,700 -2,100 Descending Los Angeles Center
01:20AM 32.7517 -115.3408 268° West 399 459 26,700 -2,040 Descending Los Angeles Center
01:21AM 32.7481 -115.4669 272° West 393 452 24,700 -1,560 Descending Los Angeles Center
01:22AM 32.7508 -115.5953 271° West 393 452 23,600 -1,260 Descending Los Angeles Center
01:23AM 32.7533 -115.7236 272° West 393 452 22,200 -1,620 Descending Los Angeles Center
01:24AM 32.7578 -115.8494 270° West 388 447 20,400 -1,860 Descending Los Angeles Center
01:25AM 32.7581 -115.9656 273° West 377 434 18,500 -2,040 Descending Los Angeles Center
01:26AM 32.7625 -116.0817 271° West 360 414 16,400 -2,040 Descending Los Angeles Center
01:27AM 32.7644 -116.1953 270° West 355 409 14,500 -1,860 Descending Los Angeles Center
01:28AM 32.7644 -116.3014 260° West 347 399 12,700 -1,800 Descending Los Angeles Center
01:29AM 32.7494 -116.4075 260° West 334 384 10,900 -1,500 Descending Los Angeles Center
01:30AM 32.7347 -116.5114 260° West 329 379 9,700 -1,080 Descending Los Angeles Center
01:31AM 32.7217 -116.6025 263° West 311 358 8,800 -1,080 Descending Los Angeles Center
01:32AM 32.7131 -116.6914 266° West 291 335 7,600 -900 Descending Los Angeles Center
01:33AM 32.7083 -116.7728 262° West 270 311 7,100 -900 Descending Los Angeles Center
01:34AM 32.6997 -116.8492 249° West 249 287 5,800 -1,320 Descending Los Angeles Center
01:35AM 32.6761 -116.9231 280° West 242 278 4,500 -1,260 Descending Los Angeles Center
01:36AM 32.6861 -116.9922 286° West 226 260 3,300 -1,140 Descending Los Angeles Center
01:37AM 32.7000 -117.0500 292° West 192 221 2,400 -960 Descending Southern California TRACON
01:38AM 32.7167 -117.1000 292° West 166 191 1,400 -900 Descending Southern California TRACON
01:39AM 32.7333 -117.1500 274° West 155 178 500 -600 Descending Southern California TRACON
01:40AM 32.7367 -117.2150 281° West 164 189 200 11,700 Descending Los Angeles Center
01:41AM 32.7464 -117.2719 282° West 164 189 24,000 11,880 Climbing Los Angeles Center
01:42AM 32.7564 -117.3264 282° West 164 189 24,000  Level Los Angeles Center
01:43AM 32.7603 -117.3486 282° West 164 189 24,000  Level Los Angeles Center